Time;durP1;ratioP1;P1;durP2;ratioP2;P2;SDS_P1;SDS_P2;PMS_P1;PMS_P2;Temp;Humidity;BMP_temperature;BMP_pressure;BME280_temperature;BME280_humidity;BME280_pressure;Samples;Min_cycle;Max_cycle;Signal;HPM_P1;HPM_P2
2021/04/29 00:02:00;;;;;;;11.23;10.32;;;11.70;99.90;;;12.57;89.90;96517.69;5229852;28;20189;-67
2021/04/29 00:04:33;;;;;;;11.23;10.15;;;11.70;99.90;;;12.50;90.32;96526.03;5231283;28;20232;-67
2021/04/29 00:07:05;;;;;;;10.23;9.27;;;11.70;99.90;;;12.46;90.29;96524.22;5228957;28;20294;-66
2021/04/29 00:09:38;;;;;;;10.23;9.32;;;11.70;99.90;;;12.43;91.10;96528.41;5244431;28;20200;-67
2021/04/29 00:12:11;;;;;;;10.35;9.35;;;11.70;99.90;;;12.40;91.27;96521.47;5230365;28;20217;-68
2021/04/29 00:14:43;;;;;;;10.30;9.50;;;11.60;99.90;;;12.40;91.44;96521.47;5224850;28;20266;-65
2021/04/29 00:17:16;;;;;;;11.38;10.27;;;11.60;99.90;;;12.36;91.44;96524.75;5235379;28;20201;-66
2021/04/29 00:19:48;;;;;;;11.17;10.17;;;11.60;99.90;;;12.36;91.24;96524.75;5232364;28;20203;-67
2021/04/29 00:22:20;;;;;;;11.13;10.00;;;11.60;99.90;;;12.33;91.22;96528.13;5236793;28;20200;-67
2021/04/29 00:24:52;;;;;;;9.52;8.73;;;11.60;99.90;;;12.33;91.22;96527.25;5231360;28;20212;-67
2021/04/29 00:27:25;;;;;;;11.37;10.43;;;11.50;99.90;;;12.31;91.57;96523.78;5230490;28;20197;-68
2021/04/29 00:29:56;;;;;;;11.65;10.65;;;11.50;99.90;;;12.34;91.66;96519.63;5234922;28;20207;-67
2021/04/29 00:32:28;;;;;;;10.88;9.93;;;11.50;99.90;;;12.39;91.07;96522.31;5235990;28;20702;-67
2021/04/29 00:35:01;;;;;;;11.02;10.23;;;11.60;99.90;;;12.37;91.26;96531.66;5234061;28;20220;-67
2021/04/29 00:37:33;;;;;;;11.50;10.48;;;11.60;99.90;;;12.45;91.29;96530.19;5228947;28;20657;-67
2021/04/29 00:40:06;;;;;;;10.68;9.63;;;11.60;99.90;;;12.42;88.84;96524.97;5236761;28;20215;-67
2021/04/29 00:42:41;;;;;;;11.07;10.18;;;11.60;99.90;;;12.11;89.82;96521.50;5235226;28;20188;-68
2021/04/29 00:45:14;;;;;;;10.98;9.95;;;11.30;99.90;;;12.06;90.55;96510.25;5243105;28;20199;-68
2021/04/29 00:47:50;;;;;;;11.07;10.20;;;11.30;99.90;;;12.00;91.00;96515.22;5229002;28;20688;-68
2021/04/29 00:50:25;;;;;;;11.37;10.37;;;11.20;99.90;;;12.01;91.09;96519.50;5229897;28;20255;-65
2021/04/29 00:52:57;;;;;;;11.02;10.10;;;11.20;99.90;;;11.97;90.94;96520.25;5228875;28;20672;-68
2021/04/29 00:55:29;;;;;;;11.20;10.20;;;11.20;99.90;;;11.91;90.81;96514.94;5231790;28;20201;-65
2021/04/29 00:58:02;;;;;;;11.33;10.33;;;11.10;99.90;;;11.90;91.49;96518.31;5236975;28;20197;-68
2021/04/29 01:00:38;;;;;;;10.77;9.77;;;11.10;99.90;;;11.93;90.99;96515.84;5246830;28;20192;-64
2021/04/29 01:03:18;;;;;;;10.02;9.13;;;11.10;99.90;;;11.84;91.40;96512.97;5228210;28;20227;-64
2021/04/29 01:05:53;;;;;;;11.13;10.13;;;11.00;99.90;;;11.84;91.69;96515.53;5222657;28;20201;-67
2021/04/29 01:08:31;;;;;;;11.20;10.30;;;11.00;99.90;;;11.85;91.67;96525.88;5231121;28;20586;-67
2021/04/29 01:11:10;;;;;;;10.90;10.03;;;11.00;99.90;;;11.84;91.71;96520.66;5246659;28;20222;-65
2021/04/29 01:13:48;;;;;;;11.57;10.67;;;11.10;99.90;;;11.85;92.17;96520.75;5229606;28;20217;-65
2021/04/29 01:16:23;;;;;;;11.30;10.20;;;11.10;99.90;;;11.87;92.76;96523.34;5244054;28;20232;-65
2021/04/29 01:18:58;;;;;;;11.57;10.53;;;11.10;99.90;;;11.86;92.58;96513.94;5242917;28;20200;-64
2021/04/29 01:21:30;;;;;;;11.20;10.30;;;11.10;99.90;;;11.85;93.21;96520.75;5239021;28;20197;-68
2021/04/29 01:24:06;;;;;;;10.37;9.67;;;11.00;99.90;;;11.86;93.29;96527.59;5243804;28;20710;-64
2021/04/29 01:26:48;;;;;;;11.95;10.90;;;11.10;99.90;;;11.87;92.90;96524.19;5234839;28;20196;-67
2021/04/29 01:29:22;;;;;;;11.13;10.10;;;11.10;99.90;;;11.84;92.53;96524.06;5236268;28;20201;-65
2021/04/29 01:31:56;;;;;;;10.70;9.90;;;11.10;99.90;;;11.82;92.87;96519.75;5236273;28;20216;-67
2021/04/29 01:34:37;;;;;;;10.97;10.07;;;11.00;99.90;;;11.76;92.81;96529.78;5229090;28;20303;-68
2021/04/29 01:37:10;;;;;;;11.43;10.53;;;10.90;99.90;;;11.71;92.13;96537.34;5228162;28;20200;-67
2021/04/29 01:39:42;;;;;;;11.27;10.37;;;10.80;99.90;;;11.73;92.72;96541.69;5248381;28;20638;-67
2021/04/29 01:42:16;;;;;;;10.50;9.70;;;10.90;99.90;;;11.71;92.49;96553.56;5233163;28;20645;-65
2021/04/29 01:44:48;;;;;;;11.93;10.93;;;10.90;99.90;;;11.72;92.65;96550.16;5241126;28;20594;-67
2021/04/29 01:47:20;;;;;;;11.13;10.23;;;10.90;99.90;;;11.73;92.47;96551.94;5239796;28;20205;-66
2021/04/29 01:49:53;;;;;;;12.45;11.38;;;10.90;99.90;;;11.76;92.37;96551.16;5227954;28;20237;-65
2021/04/29 01:52:25;;;;;;;12.80;11.60;;;11.00;99.90;;;11.78;92.50;96553.75;5230781;28;20221;-65
2021/04/29 01:54:57;;;;;;;12.63;11.60;;;10.90;99.90;;;11.78;92.23;96553.75;5228075;28;20194;-65
2021/04/29 01:57:30;;;;;;;12.23;11.17;;;10.90;99.90;;;11.77;91.90;96544.34;5228804;28;20199;-65
2021/04/29 02:00:08;;;;;;;12.60;11.60;;;10.90;99.90;;;11.69;91.73;96557.75;5235083;28;20666;-65
2021/04/29 02:02:40;;;;;;;12.70;11.53;;;10.90;99.90;;;11.58;91.47;96556.53;5235795;28;20231;-65
2021/04/29 02:05:13;;;;;;;12.93;11.80;;;10.70;99.90;;;11.56;91.66;96553.09;5230040;28;20288;-65
2021/04/29 02:07:45;;;;;;;12.40;11.40;;;10.70;99.90;;;11.48;91.48;96560.50;5229473;28;20319;-67
2021/04/29 02:10:17;;;;;;;12.33;11.27;;;10.60;99.90;;;11.49;92.18;96562.22;5248379;28;20200;-65
2021/04/29 02:12:55;;;;;;;13.47;12.30;;;10.60;99.90;;;11.46;91.25;96561.28;5230255;28;20223;-64
2021/04/29 02:15:31;;;;;;;13.00;11.90;;;10.60;99.90;;;11.47;91.63;96563.00;5229626;28;20197;-66
2021/04/29 02:18:08;;;;;;;13.10;12.00;;;10.60;99.90;;;11.43;90.89;96561.19;5222471;28;20211;-67
2021/04/29 02:20:43;;;;;;;12.80;11.73;;;10.60;99.90;;;11.44;92.67;96562.91;5239079;28;20803;-65
2021/04/29 02:23:18;;;;;;;13.10;11.93;;;10.60;99.90;;;11.53;91.72;96563.19;5230495;28;20516;-65
2021/04/29 02:25:54;;;;;;;12.10;11.00;;;10.70;99.90;;;11.51;92.26;96569.97;5242552;28;20208;-64
2021/04/29 02:28:29;;;;;;;12.87;11.77;;;10.70;99.90;;;11.54;92.74;96564.97;5245981;28;20192;-68
2021/04/29 02:31:04;;;;;;;13.40;12.10;;;10.80;99.90;;;11.52;93.60;96581.06;5241839;28;20193;-66
2021/04/29 02:33:36;;;;;;;13.03;11.83;;;10.80;99.90;;;11.53;92.81;96573.44;5228430;28;20592;-65
2021/04/29 02:36:09;;;;;;;12.30;11.20;;;10.70;99.90;;;11.50;92.99;96574.22;5227979;28;20671;-65
2021/04/29 02:38:41;;;;;;;13.30;12.20;;;10.80;99.90;;;11.55;93.36;96583.72;5230249;28;20204;-66
2021/04/29 02:41:13;;;;;;;14.43;13.13;;;10.80;99.90;;;11.59;93.30;96581.34;5221715;28;20197;-65
2021/04/29 02:43:46;;;;;;;13.53;12.33;;;10.80;99.90;;;11.58;92.91;96578.72;5232247;28;20591;-66
2021/04/29 02:46:20;;;;;;;12.97;11.77;;;10.80;99.90;;;11.59;93.37;96585.56;5237671;28;20292;-67
2021/04/29 02:48:52;;;;;;;13.60;12.43;;;10.80;99.90;;;11.56;93.07;96580.34;5232320;28;20198;-66
2021/04/29 02:51:26;;;;;;;13.03;12.03;;;10.80;99.90;;;11.54;93.04;96590.53;5226915;28;20221;-66
2021/04/29 02:53:58;;;;;;;13.57;12.37;;;10.80;99.90;;;11.53;93.93;96593.03;5244898;28;20232;-66
2021/04/29 02:56:30;;;;;;;13.90;12.70;;;10.80;99.90;;;11.52;94.12;96592.19;5235809;28;20201;-66
2021/04/29 02:59:03;;;;;;;13.60;12.40;;;10.80;99.90;;;11.48;94.09;96595.47;5226340;28;20193;-66
2021/04/29 03:01:35;;;;;;;10.53;9.60;;;10.80;99.90;;;11.57;93.70;96592.34;5230846;28;20207;-66
2021/04/29 03:04:08;;;;;;;10.07;9.27;;;10.80;99.90;;;11.50;93.69;96588.69;5226675;28;20213;-67
2021/04/29 03:06:40;;;;;;;10.70;9.80;;;10.80;99.90;;;11.51;94.13;96600.69;5226169;28;20281;-67
2021/04/29 03:09:12;;;;;;;9.40;8.50;;;10.90;99.90;;;11.71;93.39;96588.53;5235834;28;20207;-67
2021/04/29 03:11:44;;;;;;;8.70;8.07;;;11.00;99.90;;;11.64;93.76;96599.38;5242107;28;20217;-67
2021/04/29 03:14:17;;;;;;;8.83;8.17;;;11.00;99.90;;;11.66;94.21;96598.59;5236453;28;20593;-67
2021/04/29 03:16:49;;;;;;;7.50;6.97;;;11.00;99.90;;;11.76;93.20;96596.34;5244150;28;20203;-67
2021/04/29 03:19:21;;;;;;;7.80;7.13;;;11.10;99.90;;;11.73;93.93;96604.78;5236626;28;20295;-67
2021/04/29 03:21:53;;;;;;;7.03;6.43;;;11.10;99.90;;;11.83;93.29;96603.41;5225600;28;20190;-67
2021/04/29 03:24:25;;;;;;;5.87;5.43;;;11.10;99.90;;;11.93;91.81;96613.13;5227573;28;20232;-67
2021/04/29 03:27:17;;;;;;;5.03;4.53;;;11.30;99.90;;;11.93;91.90;96610.56;5225695;28;20201;-67
2021/04/29 03:29:51;;;;;;;4.97;4.57;;;11.30;99.90;;;12.05;90.08;96616.09;5225355;28;20201;-67
2021/04/29 03:32:23;;;;;;;4.40;4.10;;;11.40;99.90;;;12.07;89.74;96618.69;5224679;28;20225;-64
2021/04/29 03:34:55;;;;;;;4.33;4.03;;;11.50;99.90;;;12.05;90.96;96622.91;5230005;28;20557;-65
2021/04/29 03:37:27;;;;;;;4.80;4.40;;;11.40;99.90;;;12.02;91.23;96630.47;5231865;28;20199;-66
2021/04/29 03:39:59;;;;;;;4.17;3.87;;;11.40;99.90;;;12.13;90.65;96627.47;5233130;28;20193;-66
2021/04/29 03:42:31;;;;;;;4.43;3.90;;;11.40;99.90;;;12.11;90.00;96626.53;5235431;28;20200;-65
2021/04/29 03:45:06;;;;;;;3.70;3.40;;;11.40;99.90;;;12.10;89.59;96642.72;5247222;28;20196;-66
2021/04/29 03:47:38;;;;;;;4.07;3.73;;;11.50;99.90;;;11.97;90.53;96663.63;5230759;28;20203;-67
2021/04/29 03:50:11;;;;;;;4.27;3.90;;;11.40;99.90;;;11.94;91.30;96655.88;5224585;28;20208;-66
2021/04/29 03:52:43;;;;;;;3.57;3.37;;;11.40;99.90;;;12.06;91.64;96658.81;5240988;28;20702;-66
2021/04/29 03:55:16;;;;;;;3.77;3.57;;;11.40;99.90;;;12.04;92.11;96680.94;5243718;28;20206;-67
2021/04/29 03:57:48;;;;;;;4.13;3.83;;;11.40;99.90;;;11.93;93.42;96678.03;5225562;28;20203;-66
2021/04/29 04:00:21;;;;;;;3.93;3.63;;;11.30;99.90;;;11.95;92.89;96676.38;5232509;28;20291;-65
2021/04/29 04:02:53;;;;;;;4.20;3.80;;;11.40;99.90;;;11.88;93.56;96678.72;5245442;28;20238;-67
2021/04/29 04:05:26;;;;;;;3.90;3.70;;;11.30;99.90;;;11.91;94.29;96674.56;5233806;28;20196;-65
2021/04/29 04:07:58;;;;;;;3.83;3.57;;;11.30;99.90;;;11.88;94.46;96686.41;5228958;28;20581;-65
2021/04/29 04:10:30;;;;;;;4.10;3.77;;;11.30;99.90;;;11.87;95.23;96694.88;5228697;28;20207;-65
2021/04/29 04:13:02;;;;;;;4.03;3.70;;;11.30;99.90;;;11.83;95.62;96696.44;5229219;28;20320;-67
2021/04/29 04:15:35;;;;;;;3.90;3.70;;;11.20;99.90;;;11.86;95.43;96700.81;5226336;28;20610;-66
2021/04/29 04:18:07;;;;;;;4.10;3.87;;;11.20;99.90;;;11.86;96.08;96696.56;5230777;28;20211;-66
2021/04/29 04:20:41;;;;;;;4.03;3.67;;;11.20;99.90;;;11.87;96.44;96703.41;5225172;28;20201;-67
2021/04/29 04:23:13;;;;;;;4.60;4.30;;;11.30;99.90;;;11.93;96.78;96707.88;5237481;22;20351;-66
2021/04/29 04:25:45;;;;;;;4.27;3.97;;;11.20;99.90;;;11.87;95.75;96707.69;5243644;28;20306;-66
2021/04/29 04:28:17;;;;;;;3.73;3.47;;;11.20;99.90;;;11.80;96.17;96718.50;5245624;28;20203;-67
2021/04/29 04:30:50;;;;;;;4.33;4.03;;;11.20;99.90;;;11.75;95.88;96726.03;5240505;28;20197;-67
2021/04/29 04:33:22;;;;;;;4.27;3.97;;;11.10;99.90;;;11.78;97.28;96733.81;5237738;28;20228;-66
2021/04/29 04:35:54;;;;;;;4.10;3.80;;;11.10;99.90;;;11.79;96.04;96739.78;5219897;28;20221;-67
2021/04/29 04:38:26;;;;;;;4.60;4.20;;;11.10;99.90;;;11.82;96.77;96745.91;5223552;28;20284;-66
2021/04/29 04:40:58;;;;;;;4.27;3.97;;;11.10;99.90;;;11.85;96.80;96751.16;5216566;28;20219;-67
2021/04/29 04:43:30;;;;;;;3.77;3.57;;;11.10;99.90;;;11.92;96.33;96754.78;5222510;28;20215;-67
2021/04/29 04:46:03;;;;;;;4.17;3.87;;;11.20;99.90;;;11.98;95.04;96756.69;5217237;28;20649;-67
2021/04/29 04:48:35;;;;;;;4.40;4.00;;;11.20;99.90;;;11.89;94.42;96742.75;5223359;28;20243;-66
2021/04/29 04:51:07;;;;;;;4.00;3.60;;;11.10;99.90;;;11.90;95.23;96749.66;5214387;28;20189;-66
2021/04/29 04:53:39;;;;;;;3.77;3.47;;;11.20;99.90;;;11.97;95.93;96750.72;5222824;28;20228;-65
2021/04/29 04:56:11;;;;;;;3.60;3.40;;;11.20;99.90;;;11.98;95.69;96752.44;5209992;28;20202;-67
2021/04/29 04:58:43;;;;;;;3.60;3.40;;;11.20;99.90;;;12.01;96.04;96752.53;5218524;28;20204;-67
2021/04/29 05:01:16;;;;;;;3.40;3.20;;;11.30;99.90;;;12.06;96.24;96756.13;5216009;28;20200;-65
2021/04/29 05:03:48;;;;;;;3.33;3.10;;;11.20;99.90;;;12.12;96.80;96755.47;5228749;28;20566;-65
2021/04/29 05:06:21;;;;;;;3.00;2.80;;;11.30;99.90;;;12.22;96.90;96761.75;5223569;28;20212;-66
2021/04/29 05:08:53;;;;;;;3.38;3.17;;;11.40;99.90;;;12.27;96.45;96766.19;5228363;28;20206;-67
2021/04/29 05:11:25;;;;;;;3.47;3.27;;;11.40;99.90;;;12.36;96.51;96770.75;5214758;28;20198;-67
2021/04/29 05:13:57;;;;;;;3.50;3.30;;;11.40;99.90;;;12.41;96.21;96779.47;5221473;28;20693;-67
2021/04/29 05:16:30;;;;;;;3.60;3.40;;;11.50;99.90;;;12.56;96.29;96790.22;5215008;28;20199;-66
2021/04/29 05:19:03;;;;;;;3.13;2.92;;;11.60;99.90;;;12.78;96.09;96785.75;5219134;28;20213;-66
2021/04/29 05:21:35;;;;;;;3.40;3.10;;;11.80;99.90;;;13.16;95.37;96793.75;5226407;28;20716;-67
2021/04/29 05:24:08;;;;;;;3.65;3.40;;;12.20;99.90;;;13.49;93.08;96799.88;5228069;28;20229;-66
2021/04/29 05:26:40;;;;;;;2.85;2.75;;;12.40;99.90;;;13.81;92.23;96799.91;5228230;28;20215;-66
2021/04/29 05:29:12;;;;;;;2.90;2.70;;;12.70;99.90;;;13.89;89.95;96790.72;5227479;28;20209;-66
2021/04/29 05:31:45;;;;;;;2.90;2.70;;;12.80;99.90;;;13.86;88.51;96793.19;5226998;28;20225;-67
2021/04/29 05:34:17;;;;;;;2.70;2.50;;;12.80;99.90;;;13.81;88.99;96797.34;5226120;28;20325;-66
2021/04/29 05:36:49;;;;;;;3.08;2.90;;;12.70;99.90;;;13.74;86.83;96792.88;5218168;28;20197;-66
2021/04/29 05:39:21;;;;;;;3.22;3.03;;;12.60;99.90;;;13.71;87.68;96803.06;5225887;28;20200;-67
2021/04/29 05:41:53;;;;;;;2.65;2.45;;;12.60;99.90;;;13.73;88.04;96798.81;5227684;28;20190;-67
2021/04/29 05:44:25;;;;;;;3.10;2.90;;;12.60;99.90;;;13.71;87.68;96803.06;5220516;28;20316;-67
2021/04/29 05:46:59;;;;;;;2.83;2.72;;;12.60;99.90;;;13.78;86.88;96801.53;5228602;28;20205;-67
2021/04/29 05:49:32;;;;;;;3.22;3.03;;;12.70;99.90;;;13.87;86.61;96807.78;5225210;28;20200;-67
2021/04/29 05:52:04;;;;;;;3.20;3.00;;;12.70;99.90;;;14.05;83.80;96801.38;5213498;28;20707;-68
2021/04/29 05:54:37;;;;;;;3.15;2.85;;;13.00;99.90;;;14.46;80.49;96805.03;5209871;28;20220;-68
2021/04/29 05:57:08;;;;;;;2.78;2.58;;;13.30;99.90;;;14.73;80.94;96809.97;5226547;28;20200;-66
2021/04/29 05:59:41;;;;;;;3.00;2.80;;;13.50;99.90;;;14.77;79.59;96805.81;5226214;28;20201;-67
2021/04/29 06:02:13;;;;;;;3.17;2.95;;;13.60;99.90;;;14.71;79.28;96806.53;5220918;28;20210;-68
2021/04/29 06:04:46;;;;;;;3.47;3.22;;;13.40;99.90;;;14.42;77.83;96806.66;5225925;28;20217;-68
2021/04/29 06:07:18;;;;;;;3.05;2.85;;;13.30;99.90;;;14.32;80.45;96807.25;5214751;28;20200;-67
2021/04/29 06:09:50;;;;;;;3.10;2.90;;;13.20;99.90;;;14.14;79.65;96811.94;5215932;28;20284;-68
2021/04/29 06:12:23;;;;;;;2.90;2.70;;;13.00;99.90;;;13.96;78.77;96812.28;5216821;28;20300;-67
2021/04/29 06:14:55;;;;;;;2.88;2.67;;;12.90;99.90;;;13.86;80.25;96808.63;5207549;28;20225;-67
2021/04/29 06:17:28;;;;;;;3.17;2.90;;;12.80;99.90;;;13.93;82.13;96818.22;5226422;28;20190;-68
2021/04/29 06:20:01;;;;;;;3.40;3.20;;;12.90;99.90;;;13.98;82.24;96816.63;5225644;28;20202;-67
2021/04/29 06:22:33;;;;;;;3.17;2.97;;;12.90;99.90;;;14.11;81.99;96814.41;5223308;28;20201;-68
2021/04/29 06:25:07;;;;;;;3.17;2.83;;;13.00;99.90;;;14.19;82.37;96818.03;5208824;28;20228;-67
2021/04/29 06:27:39;;;;;;;2.85;2.75;;;13.10;99.90;;;14.25;81.47;96817.31;5216569;28;20287;-66
2021/04/29 06:30:13;;;;;;;3.25;3.05;;;13.10;99.90;;;14.26;81.00;96822.50;5223427;28;20255;-67
2021/04/29 06:32:46;;;;;;;2.88;2.72;;;13.10;99.90;;;14.33;78.81;96829.53;5230209;28;20632;-67
2021/04/29 06:35:18;;;;;;;3.20;3.00;;;13.20;99.90;;;14.42;77.82;96828.91;5223386;28;20674;-68
2021/04/29 06:37:50;;;;;;;3.22;3.03;;;13.30;99.90;;;14.43;76.23;96825.53;5215358;28;20220;-64
2021/04/29 06:40:22;;;;;;;3.30;3.03;;;13.30;99.90;;;14.53;73.49;96836.94;5220636;28;20201;-68
2021/04/29 06:42:54;;;;;;;4.28;3.30;;;13.30;99.90;;;14.53;73.07;96832.66;5214297;28;20197;-67
2021/04/29 06:45:26;;;;;;;3.65;3.35;;;13.30;99.90;;;14.36;71.62;96827.03;5224547;28;20193;-67
2021/04/29 06:47:59;;;;;;;3.85;3.50;;;13.20;99.90;;;14.31;71.11;96831.22;5224263;28;20288;-66
2021/04/29 06:50:31;;;;;;;3.55;3.28;;;13.10;99.90;;;14.24;71.85;96823.31;5222617;28;20220;-64
2021/04/29 06:53:04;;;;;;;3.50;3.30;;;13.00;99.90;;;14.13;73.09;96831.59;5221545;28;20227;-67
2021/04/29 06:55:36;;;;;;;4.00;3.70;;;13.00;99.90;;;14.12;74.43;96822.16;5223829;28;20281;-67
2021/04/29 06:58:09;;;;;;;3.47;3.28;;;13.00;99.90;;;14.18;74.67;96824.00;5219678;28;20196;-67
2021/04/29 07:00:44;;;;;;;3.65;3.45;;;13.10;99.90;;;14.34;73.16;96821.00;5207702;28;20537;-67
2021/04/29 07:03:17;;;;;;;4.03;3.55;;;13.20;99.90;;;14.61;70.96;96827.69;5222820;28;20227;-69
2021/04/29 07:05:49;;;;;;;3.72;3.42;;;13.40;99.90;;;14.75;68.84;96828.91;5223199;28;20193;-67
2021/04/29 07:08:21;;;;;;;4.00;3.70;;;13.60;99.90;;;15.27;68.91;96834.38;5218858;28;20201;-64
2021/04/29 07:10:55;;;;;;;3.80;3.50;;;14.00;99.90;;;15.92;67.72;96828.91;5214391;28;20279;-68
2021/04/29 07:13:30;;;;;;;3.63;3.42;;;14.60;99.90;;;16.65;64.65;96832.81;5219690;28;20256;-68
2021/04/29 07:16:02;;;;;;;3.40;3.10;;;15.20;99.90;;;17.18;61.97;96838.81;5223683;28;20735;-66
2021/04/29 07:18:34;;;;;;;3.70;3.40;;;15.60;99.90;;;17.32;61.53;96842.47;5227676;28;20201;-67
2021/04/29 07:21:08;;;;;;;4.55;3.60;;;15.70;99.90;;;17.90;59.23;96837.19;5224178;28;20196;-67
2021/04/29 07:23:40;;;;;;;4.05;3.58;;;16.00;99.90;;;18.20;57.91;96831.50;5220388;28;20220;-67
2021/04/29 07:26:12;;;;;;;3.38;3.10;;;16.30;99.90;;;18.72;55.93;96841.50;5232896;28;20203;-66
2021/04/29 07:28:45;;;;;;;3.67;3.38;;;16.60;99.90;;;18.84;53.12;96833.84;5220637;28;20204;-67
2021/04/29 07:31:17;;;;;;;3.70;3.40;;;16.60;99.90;;;19.37;54.13;96835.94;5230139;28;20208;-67
2021/04/29 07:33:50;;;;;;;3.90;3.60;;;16.90;99.90;;;19.70;49.99;96830.09;5218873;28;20224;-67
2021/04/29 07:36:23;;;;;;;3.63;3.42;;;17.20;99.90;;;19.91;49.37;96825.84;5228772;28;20205;-65
2021/04/29 07:38:55;;;;;;;3.45;3.25;;;17.40;99.90;;;20.19;49.23;96832.84;5234830;28;20691;-65
2021/04/29 07:41:28;;;;;;;4.95;3.80;;;17.50;99.90;;;20.01;49.42;96830.22;5223315;28;20283;-64
2021/04/29 07:44:01;;;;;;;3.65;3.35;;;17.40;99.90;;;20.44;48.53;96831.19;5222037;28;20221;-64
2021/04/29 07:46:33;;;;;;;4.07;3.65;;;17.90;99.90;;;20.21;48.66;96838.06;5216458;28;20205;-65
2021/04/29 07:49:06;;;;;;;4.40;4.00;;;17.80;99.90;;;19.83;48.36;96833.63;5222590;28;20246;-66
2021/04/29 07:51:38;;;;;;;4.20;3.80;;;17.60;99.90;;;19.62;47.75;96834.34;5215536;28;20585;-64
2021/04/29 07:54:13;;;;;;;4.60;4.10;;;17.70;99.10;;;19.51;48.05;96836.00;5222474;28;20229;-64
2021/04/29 07:56:45;;;;;;;4.03;3.70;;;17.50;98.60;;;19.41;49.51;96837.69;5223790;28;20199;-65
2021/04/29 07:59:18;;;;;;;4.15;3.85;;;17.60;99.80;;;19.51;49.03;96834.28;5221546;28;20228;-65
2021/04/29 08:01:50;;;;;;;4.13;3.83;;;17.70;98.70;;;19.61;48.86;96826.56;5231516;28;20202;-64
2021/04/29 08:04:23;;;;;;;5.88;3.97;;;17.90;98.60;;;19.78;49.01;96828.41;5220762;28;20224;-65
2021/04/29 08:06:55;;;;;;;5.15;4.18;;;18.20;98.40;;;19.93;48.27;96835.38;5231141;28;20209;-65
2021/04/29 08:09:27;;;;;;;5.00;4.07;;;18.60;97.20;;;20.10;47.19;96829.38;5225550;28;20675;-65
2021/04/29 08:11:59;;;;;;;4.85;4.32;;;18.70;96.00;;;20.17;46.03;96833.72;5220166;28;20213;-65
2021/04/29 08:14:31;;;;;;;5.00;4.50;;;18.70;95.30;;;20.00;46.46;96839.75;5233426;28;20303;-65
2021/04/29 08:17:03;;;;;;;4.95;4.43;;;18.50;95.80;;;19.98;45.63;96833.66;5222215;28;20201;-65
2021/04/29 08:19:37;;;;;;;4.68;4.28;;;18.30;94.90;;;19.70;46.03;96837.88;5225590;28;20669;-64
2021/04/29 08:22:09;;;;;;;5.03;4.63;;;18.10;95.50;;;19.54;47.24;96842.09;5222390;28;20190;-65
2021/04/29 08:24:44;;;;;;;5.25;4.75;;;17.70;96.30;;;19.30;46.47;96842.81;5232500;28;20223;-65
2021/04/29 08:27:17;;;;;;;6.88;4.70;;;17.60;95.70;;;19.05;47.45;96835.72;5229621;28;20197;-65
2021/04/29 08:29:49;;;;;;;6.43;5.07;;;17.40;96.60;;;18.89;48.30;96840.81;5223758;28;20202;-65
2021/04/29 08:32:21;;;;;;;5.85;4.57;;;17.10;96.90;;;18.76;49.57;96833.78;5229045;28;20218;-65
2021/04/29 08:34:54;;;;;;;5.50;4.95;;;17.00;98.30;;;19.04;48.69;96841.78;5228633;28;20310;-65
2021/04/29 08:37:27;;;;;;;5.88;5.22;;;17.40;97.40;;;19.17;47.37;96843.56;5230679;28;21165;-64
2021/04/29 08:39:59;;;;;;;7.20;5.55;;;17.80;95.80;;;19.36;46.13;96847.16;5242432;28;20414;-64
2021/04/29 08:42:31;;;;;;;5.68;5.28;;;18.10;94.80;;;19.19;46.58;96843.59;5245252;28;20193;-65
2021/04/29 08:45:05;;;;;;;6.25;5.75;;;17.90;94.60;;;19.41;46.06;96839.44;5240934;28;20231;-64
2021/04/29 08:47:38;;;;;;;6.20;5.60;;;18.20;94.40;;;19.40;45.86;96848.03;5240790;28;20196;-64
2021/04/29 08:50:23;;;;;;;7.43;5.80;;;18.30;93.80;;;19.58;44.71;96841.25;5233955;28;20235;-65
2021/04/29 08:52:55;;;;;;;5.78;5.28;;;18.50;92.70;;;19.49;45.50;96832.56;5215522;28;20217;-65
2021/04/29 08:55:28;;;;;;;6.07;5.57;;;18.50;93.10;;;19.34;45.85;96847.16;5228567;28;20205;-65
2021/04/29 08:58:01;;;;;;;6.28;5.55;;;18.20;93.40;;;19.43;45.42;96848.94;5231171;28;20197;-64
2021/04/29 09:00:33;;;;;;;7.15;6.15;;;18.30;93.20;;;19.54;44.88;96848.97;5229012;28;20201;-65
2021/04/29 09:03:06;;;;;;;6.72;6.13;;;18.50;92.50;;;19.70;45.00;96843.06;5229115;28;20197;-64
2021/04/29 09:05:40;;;;;;;6.72;6.22;;;18.80;92.60;;;19.92;43.27;96846.63;5228313;28;20228;-64
2021/04/29 09:08:12;;;;;;;7.00;6.40;;;19.10;91.00;;;19.83;43.66;96837.91;5226616;28;20228;-65
2021/04/29 09:10:45;;;;;;;6.40;5.80;;;18.70;91.40;;;19.79;44.09;96837.91;5227508;28;20199;-64
2021/04/29 09:13:19;;;;;;;7.45;6.75;;;18.60;91.60;;;19.65;43.70;96838.69;5226517;28;20231;-65
2021/04/29 09:15:52;;;;;;;6.78;6.18;;;18.50;91.60;;;19.39;42.83;96851.50;5228528;28;20196;-64
2021/04/29 09:18:31;;;;;;;8.23;7.43;;;18.30;90.80;;;19.19;43.54;96849.63;5222238;28;20292;-62
2021/04/29 09:21:08;;;;;;;7.43;6.72;;;18.00;91.10;;;19.09;43.85;96851.31;5228504;28;20204;-63
2021/04/29 09:23:42;;;;;;;8.32;6.85;;;17.90;91.30;;;18.94;45.41;96853.75;5213434;28;20311;-64
2021/04/29 09:26:18;;;;;;;6.88;6.30;;;17.80;92.30;;;19.01;44.85;96850.38;5228141;28;20198;-65
2021/04/29 09:28:51;;;;;;;7.57;6.90;;;17.70;92.10;;;18.88;45.16;96856.31;5226336;28;20207;-65
2021/04/29 09:31:26;;;;;;;7.90;7.13;;;17.50;92.60;;;18.74;44.89;96840.66;5227192;28;20301;-65
2021/04/29 09:34:00;;;;;;;7.38;6.68;;;17.60;92.10;;;18.59;45.60;96845.69;5227660;28;20226;-65
2021/04/29 09:36:35;;;;;;;6.80;6.20;;;17.40;92.50;;;18.50;46.43;96848.19;5227126;28;20739;-65
2021/04/29 09:39:10;;;;;;;7.30;6.57;;;17.30;92.90;;;18.66;46.10;96847.47;5210098;28;20658;-65
2021/04/29 09:41:46;;;;;;;6.75;6.20;;;17.40;92.90;;;18.68;46.30;96845.75;5213762;28;20193;-65
2021/04/29 09:44:20;;;;;;;8.02;6.43;;;17.50;93.20;;;18.75;46.32;96846.72;5228232;28;20228;-66
2021/04/29 09:46:55;;;;;;;8.40;7.60;;;17.50;93.10;;;18.79;45.43;96849.34;5208287;28;20205;-66
2021/04/29 09:49:31;;;;;;;7.78;7.07;;;17.60;92.50;;;18.90;44.53;96844.25;5227434;28;20201;-66
2021/04/29 09:52:16;;;;;;;7.55;6.85;;;17.70;91.60;;;19.01;43.56;96834.84;5218192;28;20576;-65
2021/04/29 09:54:49;;;;;;;7.72;7.10;;;17.90;91.00;;;19.11;44.34;96822.81;5221419;28;20504;-65
2021/04/29 09:57:25;;;;;;;8.98;6.78;;;18.00;91.50;;;19.38;43.61;96823.88;5227084;28;20215;-66
2021/04/29 09:59:58;;;;;;;7.10;6.47;;;18.20;91.20;;;19.46;42.87;96838.59;5226767;28;20197;-65
2021/04/29 10:02:30;;;;;;;7.90;7.20;;;18.30;90.40;;;19.48;42.33;96842.03;5226603;28;20288;-65
2021/04/29 10:05:05;;;;;;;8.23;6.68;;;18.50;89.20;;;19.53;41.90;96829.13;5226099;28;20213;-65
2021/04/29 10:07:38;;;;;;;8.02;6.80;;;18.40;89.00;;;19.61;41.65;96830.03;5227339;28;20686;-65
2021/04/29 10:10:12;;;;;;;7.07;6.47;;;18.50;88.80;;;19.49;41.86;96827.38;5226947;28;20201;-65
2021/04/29 10:12:44;;;;;;;7.68;7.03;;;18.40;88.90;;;19.40;41.45;96833.38;5227494;28;20225;-66
2021/04/29 10:15:16;;;;;;;7.28;6.28;;;18.20;88.50;;;19.24;42.48;96832.41;5223340;28;20677;-65
2021/04/29 10:17:51;;;;;;;7.25;6.57;;;18.20;89.50;;;19.18;42.35;96831.50;5222828;28;20205;-65
2021/04/29 10:20:24;;;;;;;8.55;7.65;;;18.00;89.70;;;18.94;43.13;96829.59;5226163;28;20284;-65
2021/04/29 10:22:59;;;;;;;11.15;10.05;;;17.70;90.20;;;18.82;43.98;96831.22;5225848;28;20197;-65
2021/04/29 10:25:33;;;;;;;14.80;13.40;;;17.70;90.90;;;18.60;44.90;96837.03;5225786;28;20211;-65
2021/04/29 10:28:05;;;;;;;9.68;8.77;;;17.40;91.10;;;18.59;44.41;96841.34;5209239;28;20201;-66
2021/04/29 10:30:39;;;;;;;11.95;10.85;;;17.40;91.30;;;18.46;45.04;96844.72;5224280;28;20724;-65
2021/04/29 10:33:16;;;;;;;9.40;8.70;;;17.10;91.80;;;18.27;47.27;96854.00;5224677;28;20232;-65
2021/04/29 10:35:55;;;;;;;8.10;7.25;;;17.00;93.50;;;17.79;51.56;96862.91;5222853;28;20203;-64
2021/04/29 10:38:31;;;;;;;9.50;8.60;;;16.70;97.80;;;17.16;58.12;96862.00;5225788;28;20201;-65
2021/04/29 10:41:17;;;;;;;9.13;8.23;;;16.30;99.90;;;17.15;59.58;96864.59;5226815;28;20229;-64